KEKO/EKO METAR and TAF weather

Enter ICAO airport designator
Station Type Date Time Source
KEKO METAR 2019/04/25 01:56 UTC NOAA

KEKO 250156Z AUTO 02008KT 10SM CLR 20/06 A3007 RMK AO2 SLP150 T02000056


Station Type Date Time Source
KEKO Decoded METAR 2019/04/25 01:56 UTC NOAA

ELKO REGIONAL AIRPORT, NV, United States (KEKO) 40-50N 115-47W 1547M
Apr 24, 2019 - 09:56 PM EDT / 2019.04.25 0156 UTC
Wind: from the NNE (020 degrees) at 9 MPH (8 KT):0
Visibility: 10 mile(s):0
Sky conditions: clear
Temperature: 68.0 F (20.0 C)
Dew Point: 42.1 F (5.6 C)
Relative Humidity: 38%
Pressure (altimeter): 30.07 in. Hg (1018 hPa)
ob: KEKO 250156Z AUTO 02008KT 10SM CLR 20/06 A3007 RMK AO2 SLP150 T02000056
cycle: 2

Station Type Date Time Source
KEKO TAF 2019/04/24 18:40 UTC NOAA

TAF KEKO 241737Z 2418/2518 25008KT P6SM SCT080
FM242100 28012G22KT P6SM VCTS BKN080CB BKN250
FM250200 36010KT P6SM VCSH SCT080 BKN250
FM250600 VRB04KT P6SM SCT100 BKN200

Example: see airport list